Cornelius, North Carolina
Current Conditions -  °F | °C
As of 6:52 PM on Wednesday 22 Oct 2014 (Local Time) from KJQF Reporting Station
Clear Clear  
Wind Chill: 57°   Ceiling: Unl
Heat Index: 57°   Visibility: 10mi
Dew Point: 39°   Wind: 13mph
Humidity: 51%   Direction: 350°N
Pressure: 30.09"   Gusts: NA
Location:  35.49°N, 80.86°W
Report Text: KJQF 222252Z 35011KT 10SM CLR 14/04 A3009
Loading
Personal Weather Stations






























Interactive Weather Map
Tropical Storm Tracking
New forecast layout! Learn more

10-Day Weather Forecast

Advertisements
Track Severe Weather on mobile